This is the latest recevied weather packets stored in our database for station/object W4CPD. If no packets are shown the sender has not sent any weather packets the latest 10 day(s).
| Time | Temp. | Humidity | Pressure | Rain* | Wind** | Luminosity | Snow |
|---|---|---|---|---|---|---|---|
| 1777744515 | 20° C | 75% | 1015 hPa | 1.02 mm | - | - | - |
| 1777744213 | 20° C | 73% | 1015.2 hPa | 1.02 mm | - | - | - |
| 1777741240 | 18.33° C | 83% | 1015 hPa | 0.51 mm | - | - | - |
| 1777740614 | 17.78° C | 84% | 1015.2 hPa | 0.76 mm | - | - | - |
| 1777739114 | 17.22° C | 89% | 1015.2 hPa | 0.76 mm | - | - | - |
| 1777737013 | 16.11° C | 92% | 1015.5 hPa | 0.76 mm | - | - | - |
| 1777736728 | 15.56° C | 94% | 1015.3 hPa | 0.76 mm | - | - | - |
| 1777734929 | 13.89° C | 96% | 1015.1 hPa | 0.76 mm | - | - | - |
| 1777734614 | 13.89° C | 97% | 1015.1 hPa | 0.76 mm | - | - | - |
| 1777733715 | 13.89° C | 97% | 1015 hPa | 0.76 mm | - | - | - |
| 1777732813 | 13.33° C | 97% | 1014.4 hPa | 0.76 mm | - | - | - |
| 1777732514 | 13.33° C | 98% | 1014.4 hPa | 0.51 mm | - | - | - |
| 1777731613 | 13.33° C | 98% | 1014.6 hPa | 0.76 mm | - | - | - |
| 1777731013 | 12.78° C | 98% | 1014.8 hPa | 0.76 mm | - | - | - |
| 1777728627 | 12.22° C | 98% | 1014.5 hPa | 0.76 mm | - | - | - |
| 1777726832 | 12.22° C | 98% | 1014 hPa | 1.02 mm | - | - | - |
| 1777726512 | 12.22° C | 98% | 1014 hPa | 1.02 mm | - | - | - |
| 1777725932 | 12.22° C | 98% | 1013.7 hPa | 1.02 mm | - | - | - |
| 1777723229 | 11.67° C | 99% | 1013.2 hPa | 0.76 mm | - | - | - |
| 1777722915 | 11.67° C | 98% | 1013.5 hPa | 1.02 mm | - | - | - |
| 1777722613 | 11.67° C | 98% | 1013.7 hPa | 1.02 mm | - | - | - |
| 1777721114 | 11.67° C | 98% | 1012.8 hPa | 0.76 mm | - | - | - |
| 1777719914 | 11.67° C | 98% | 1012.1 hPa | 1.02 mm | - | - | - |
| 1777718735 | 11.67° C | 98% | 1012.8 hPa | 1.02 mm | - | - | - |
| 1777717215 | 12.22° C | 98% | 1013.3 hPa | 0.76 mm | - | - | - |
* Rain latest hour (hover to see other rain measurements)
** Current wind speed in m/s (hover to see current wind gust speed)